Time;durP1;ratioP1;P1;durP2;ratioP2;P2;SDS_P1;SDS_P2;PMS_P1;PMS_P2;Temp;Humidity;BMP_temperature;BMP_pressure;BME280_temperature;BME280_humidity;BME280_pressure;Samples;Min_cycle;Max_cycle;Signal;HPM_P1;HPM_P2
2022/10/30 00:01:33;;;;;;;18.60;9.15;;;;;;;10.33;100.00;98898.75;4158895;28;20049;-75
2022/10/30 00:03:34;;;;;;;12.23;9.20;;;;;;;10.31;100.00;98886.44;4155223;28;20359;-75
2022/10/30 00:05:34;;;;;;;13.57;8.15;;;;;;;10.27;100.00;98891.13;4157941;28;20511;-75
2022/10/30 00:07:34;;;;;;;13.13;9.30;;;;;;;10.24;100.00;98891.84;4157502;28;20041;-75
2022/10/30 00:09:34;;;;;;;13.30;8.18;;;;;;;10.21;100.00;98898.09;4157396;28;20099;-75
2022/10/30 00:11:35;;;;;;;12.73;8.30;;;;;;;10.18;100.00;98894.09;4154685;28;20428;-75
2022/10/30 00:13:36;;;;;;;18.13;9.23;;;;;;;10.17;100.00;98895.22;4157920;28;20033;-75
2022/10/30 00:15:36;;;;;;;23.98;9.50;;;;;;;10.13;100.00;98886.88;4156778;28;20495;-75
2022/10/30 00:17:37;;;;;;;14.88;8.57;;;;;;;10.12;100.00;98893.56;4156493;28;20053;-75
2022/10/30 00:19:37;;;;;;;16.10;9.00;;;;;;;10.08;100.00;98894.66;4158561;28;20425;-75
2022/10/30 00:21:37;;;;;;;12.23;8.90;;;;;;;10.09;100.00;98888.78;4154740;28;20041;-75
2022/10/30 00:23:39;;;;;;;15.55;8.68;;;;;;;10.09;100.00;98894.31;4156545;28;20446;-75
2022/10/30 00:25:40;;;;;;;20.45;10.85;;;;;;;10.08;100.00;98889.13;4157328;28;20340;-75
2022/10/30 00:27:40;;;;;;;13.35;9.77;;;;;;;10.06;100.00;98888.69;4156019;28;20399;-75
2022/10/30 00:29:40;;;;;;;16.52;10.98;;;;;;;10.08;100.00;98889.94;4157692;28;20080;-75
2022/10/30 00:31:41;;;;;;;20.27;10.07;;;;;;;10.10;100.00;98892.34;4157297;28;20128;-75
2022/10/30 00:33:41;;;;;;;13.23;8.90;;;;;;;10.10;100.00;98878.53;4155860;28;20045;-75
2022/10/30 00:35:47;;;;;;;15.60;8.98;;;;;;;10.10;100.00;98879.31;4157340;28;20143;-75
2022/10/30 00:37:47;;;;;;;15.57;10.32;;;;;;;10.12;100.00;98879.75;4157539;28;20030;-75
2022/10/30 00:39:48;;;;;;;17.77;9.10;;;;;;;10.06;100.00;98878.44;4156201;28;20047;-75
2022/10/30 00:41:48;;;;;;;15.10;9.02;;;;;;;10.06;100.00;98878.44;4157368;28;20518;-75
2022/10/30 00:43:49;;;;;;;19.10;8.60;;;;;;;10.05;100.00;98876.84;4156847;28;20033;-75
2022/10/30 00:45:49;;;;;;;14.93;8.18;;;;;;;10.03;100.00;98872.84;4157160;28;20430;-75
2022/10/30 00:47:57;;;;;;;16.00;8.38;;;;;;;9.99;100.00;98867.25;4158029;28;20121;-75
2022/10/30 00:50:15;;;;;;;12.65;8.20;;;;;;;10.02;100.00;98871.25;4155557;28;20037;-75
2022/10/30 00:52:18;;;;;;;14.07;8.98;;;;;;;10.00;100.00;98868.03;4155972;28;20559;-75
2022/10/30 00:54:19;;;;;;;14.05;8.88;;;;;;;10.03;100.00;98867.31;4156303;28;20338;-75
2022/10/30 00:56:21;;;;;;;14.30;8.68;;;;;;;9.99;100.00;98864.47;4157942;28;20110;-74
2022/10/30 00:58:29;;;;;;;16.45;8.98;;;;;;;9.99;100.00;98858.16;4158419;28;20061;-75
2022/10/30 01:00:30;;;;;;;11.18;7.60;;;;;;;10.00;100.00;98860.53;4158098;28;20232;-75
2022/10/30 01:02:31;;;;;;;12.93;8.57;;;;;;;10.06;100.00;98864.63;4156374;28;20466;-75
2022/10/30 01:04:35;;;;;;;10.98;8.40;;;;;;;10.14;100.00;98855.31;4156324;28;20140;-75
2022/10/30 01:06:40;;;;;;;18.45;9.20;;;;;;;10.18;100.00;98855.38;4158168;28;20080;-75
2022/10/30 01:08:42;;;;;;;15.50;9.48;;;;;;;10.17;100.00;98862.06;4158493;28;20385;-74
2022/10/30 01:10:42;;;;;;;15.23;10.03;;;;;;;10.25;100.00;98865.78;4156033;28;20993;-75
2022/10/30 01:12:45;;;;;;;13.75;8.65;;;;;;;10.22;100.00;98859.03;4158977;28;20033;-75
2022/10/30 01:14:56;;;;;;;13.75;8.48;;;;;;;10.24;100.00;98858.66;4155422;28;20136;-75
2022/10/30 01:16:56;;;;;;;18.52;9.15;;;;;;;10.25;100.00;98872.13;4157911;28;20045;-75
2022/10/30 01:19:21;;;;;;;14.32;8.75;;;;;;;10.25;100.00;98869.34;4155951;28;20045;-74
2022/10/30 01:21:27;;;;;;;16.05;9.60;;;;;;;10.22;100.00;98859.03;4156806;28;20525;-75
2022/10/30 01:23:51;;;;;;;18.40;9.15;;;;;;;10.24;100.00;98859.47;4153562;28;20529;-74
2022/10/30 01:26:14;;;;;;;15.38;9.43;;;;;;;10.21;100.00;98853.84;4132173;28;20393;-75
2022/10/30 01:28:30;;;;;;;15.82;9.20;;;;;;;10.17;100.00;98856.53;4157617;28;20069;-75
2022/10/30 01:31:10;;;;;;;11.90;8.85;;;;;;;10.20;100.00;98858.56;4156747;28;20363;-75
2022/10/30 01:33:19;;;;;;;14.20;8.68;;;;;;;10.22;100.00;98860.97;4154877;28;20519;-75
2022/10/30 01:35:26;;;;;;;14.10;9.00;;;;;;;10.18;100.00;98852.63;4157621;28;20072;-75
2022/10/30 01:37:47;;;;;;;14.98;9.65;;;;;;;10.20;100.00;98855.81;4156707;28;20049;-75
2022/10/30 01:39:47;;;;;;;15.40;8.52;;;;;;;10.20;100.00;98853.03;4156427;28;20076;-75
2022/10/30 01:41:48;;;;;;;13.18;8.35;;;;;;;10.21;100.00;98851.06;4154592;28;20751;-75
2022/10/30 01:43:53;;;;;;;17.42;9.52;;;;;;;10.20;100.00;98855.00;4156619;28;20505;-74
2022/10/30 01:46:21;;;;;;;16.73;9.18;;;;;;;10.20;100.00;98843.94;4155646;28;20033;-75
2022/10/30 01:48:39;;;;;;;16.60;8.50;;;;;;;10.19;100.00;98843.16;4154703;28;20470;-75
2022/10/30 01:50:49;;;;;;;17.17;8.70;;;;;;;10.17;100.00;98851.00;4156281;28;20490;-75
2022/10/30 01:53:15;;;;;;;13.82;8.02;;;;;;;10.15;100.00;98847.81;4156774;28;20569;-75
2022/10/30 01:55:29;;;;;;;12.93;8.55;;;;;;;10.14;100.00;98844.25;4156082;28;20108;-75
2022/10/30 01:57:42;;;;;;;17.50;9.35;;;;;;;10.10;100.00;98843.38;4157199;28;20237;-75
2022/10/30 01:59:48;;;;;;;;;;;;;;;10.13;100.00;98842.66;4157862;28;20225;-74
2022/10/30 02:01:49;;;;;;;16.83;9.60;;;;;;;10.09;100.00;98844.56;4159779;28;20273;-74
2022/10/30 02:03:50;;;;;;;18.65;9.77;;;;;;;10.06;100.00;98845.28;4158481;28;20042;-74
2022/10/30 02:05:51;;;;;;;17.17;8.55;;;;;;;10.09;100.00;98846.50;4160715;28;20037;-74
2022/10/30 02:07:52;;;;;;;16.25;8.88;;;;;;;10.05;100.00;98843.66;4160235;28;20373;-74
2022/10/30 02:09:53;;;;;;;15.85;9.20;;;;;;;10.04;100.00;98841.28;4161552;28;20053;-74
2022/10/30 02:11:54;;;;;;;16.48;9.27;;;;;;;10.01;100.00;98829.00;4159024;28;20462;-74
2022/10/30 02:13:56;;;;;;;14.18;7.93;;;;;;;9.98;100.00;98835.25;4158262;28;20048;-75
2022/10/30 02:15:58;;;;;;;12.02;9.02;;;;;;;9.98;100.00;98831.69;4162694;28;20049;-74
2022/10/30 02:17:58;;;;;;;11.82;9.10;;;;;;;9.94;100.00;98826.09;4159586;28;20477;-74
2022/10/30 02:19:59;;;;;;;10.68;7.90;;;;;;;9.94;100.00;98823.31;4159373;28;20132;-74
2022/10/30 02:21:59;;;;;;;22.85;8.98;;;;;;;9.97;100.00;98821.78;4157890;28;20559;-74
2022/10/30 02:23:59;;;;;;;15.73;8.90;;;;;;;9.98;100.00;98828.91;4157889;28;20060;-74
2022/10/30 02:25:59;;;;;;;14.73;8.77;;;;;;;9.96;100.00;98823.75;4159997;28;20052;-74
2022/10/30 02:28:00;;;;;;;16.05;8.88;;;;;;;9.94;100.00;98831.63;4158580;28;20061;-74
2022/10/30 02:30:00;;;;;;;12.20;8.77;;;;;;;9.97;100.00;98827.31;4160899;28;20469;-74
2022/10/30 02:32:01;;;;;;;14.57;8.15;;;;;;;9.95;100.00;98822.16;4156521;28;20041;-74
2022/10/30 02:34:01;;;;;;;18.15;9.55;;;;;;;9.99;100.00;98831.31;4156953;28;20108;-74
2022/10/30 02:36:02;;;;;;;15.70;8.93;;;;;;;9.99;100.00;98828.53;4161309;28;20037;-74
2022/10/30 02:38:02;;;;;;;15.93;8.38;;;;;;;9.99;100.00;98817.47;4157489;28;20025;-74
2022/10/30 02:40:03;;;;;;;14.85;9.00;;;;;;;9.97;100.00;98828.13;4160860;28;20033;-75
2022/10/30 02:42:04;;;;;;;11.98;8.20;;;;;;;9.92;100.00;98822.06;4158763;28;20059;-74
2022/10/30 02:44:05;;;;;;;12.73;8.65;;;;;;;9.92;100.00;98831.16;4156821;28;20029;-74
2022/10/30 02:46:05;;;;;;;12.30;9.00;;;;;;;9.90;100.00;98833.50;4159397;28;20029;-74
2022/10/30 02:48:06;;;;;;;15.32;9.65;;;;;;;9.88;100.00;98835.84;4159587;28;20061;-74
2022/10/30 02:50:07;;;;;;;21.67;9.93;;;;;;;9.84;100.00;98818.38;4159257;28;20069;-74
2022/10/30 02:52:07;;;;;;;20.25;10.65;;;;;;;9.88;100.00;98823.97;4158152;28;20284;-74
2022/10/30 02:54:08;;;;;;;19.02;9.70;;;;;;;9.91;100.00;98826.81;4157879;28;20028;-74
2022/10/30 02:56:13;;;;;;;17.27;9.10;;;;;;;9.91;100.00;98828.75;4158581;28;20577;-74
2022/10/30 02:58:13;;;;;;;15.40;10.07;;;;;;;9.93;100.00;98826.44;4162621;28;20033;-74
2022/10/30 03:00:14;;;;;;;16.48;10.05;;;;;;;9.90;100.00;98825.22;4157033;28;20036;-74
2022/10/30 03:02:14;;;;;;;16.77;9.35;;;;;;;9.90;100.00;98822.44;4157158;28;20064;-74
2022/10/30 03:04:14;;;;;;;16.67;9.63;;;;;;;9.91;100.00;98817.72;4159287;28;20386;-74
2022/10/30 03:06:16;;;;;;;19.48;10.13;;;;;;;9.91;100.00;98820.47;4157349;28;20033;-74
2022/10/30 03:08:16;;;;;;;13.15;8.82;;;;;;;9.91;100.00;98820.47;4159555;28;20083;-74
2022/10/30 03:10:17;;;;;;;15.15;9.55;;;;;;;9.94;100.00;98828.84;4157592;28;20203;-74
2022/10/30 03:12:17;;;;;;;13.55;8.20;;;;;;;9.96;100.00;98826.53;4157382;28;20025;-74
2022/10/30 03:14:17;;;;;;;14.43;8.60;;;;;;;10.00;100.00;98837.63;4154363;28;20029;-74
2022/10/30 03:16:21;;;;;;;15.02;9.43;;;;;;;9.99;100.00;98836.84;4161394;28;20048;-75
2022/10/30 03:18:21;;;;;;;16.65;9.10;;;;;;;9.94;100.00;98842.69;4157988;28;20072;-74
2022/10/30 03:20:21;;;;;;;11.90;8.65;;;;;;;9.92;100.00;98831.16;4155138;28;20049;-74
2022/10/30 03:22:21;;;;;;;13.25;8.68;;;;;;;9.89;100.00;98823.59;4156189;28;20412;-74
2022/10/30 03:24:22;;;;;;;15.32;9.60;;;;;;;9.91;100.00;98809.41;4155321;28;20180;-75
2022/10/30 03:26:22;;;;;;;19.83;11.52;;;;;;;9.99;100.00;98819.44;4156642;28;20373;-74
2022/10/30 03:28:25;;;;;;;16.88;9.35;;;;;;;9.95;100.00;98805.56;4156451;28;20298;-74
2022/10/30 03:30:25;;;;;;;;;;;;;;;9.99;100.00;98805.63;4157626;28;20516;-74
2022/10/30 03:32:25;;;;;;;11.67;8.37;;;;;;;9.94;100.00;98814.25;4157178;28;19921;-74
2022/10/30 03:34:26;;;;;;;17.85;9.95;;;;;;;9.93;100.00;98829.19;4160504;28;20729;-74
2022/10/30 03:36:27;;;;;;;16.77;9.70;;;;;;;9.89;100.00;98818.09;4157520;28;20240;-74
2022/10/30 03:38:27;;;;;;;19.25;9.77;;;;;;;9.90;100.00;98822.44;4157280;28;20041;-74
2022/10/30 03:40:27;;;;;;;17.02;9.07;;;;;;;9.87;100.00;98814.91;4155216;28;20146;-75
2022/10/30 03:42:27;;;;;;;13.57;8.73;;;;;;;9.91;100.00;98804.69;4156462;28;20087;-74
2022/10/30 03:44:28;;;;;;;15.52;10.05;;;;;;;9.93;100.00;98796.03;4154991;28;20053;-74
2022/10/30 03:46:30;;;;;;;17.42;9.25;;;;;;;9.97;100.00;98825.34;4156657;28;20047;-74
2022/10/30 03:48:30;;;;;;;20.55;10.68;;;;;;;9.96;100.00;98821.00;4160516;28;20243;-74
2022/10/30 03:50:31;;;;;;;13.50;9.60;;;;;;;10.00;100.00;98812.75;4156528;28;20145;-74
2022/10/30 03:52:31;;;;;;;16.60;10.38;;;;;;;10.02;100.00;98815.97;4155334;28;20497;-74
2022/10/30 03:54:32;;;;;;;15.85;9.82;;;;;;;10.04;100.00;98810.88;4161477;28;20119;-74
2022/10/30 03:56:32;;;;;;;14.05;9.13;;;;;;;10.02;100.00;98802.16;4162695;28;20593;-74
2022/10/30 03:58:32;;;;;;;18.73;10.63;;;;;;;10.06;100.00;98808.53;4155555;28;20092;-74
2022/10/30 04:00:33;;;;;;;19.80;11.38;;;;;;;9.99;100.00;98806.44;4155728;28;20452;-75
2022/10/30 04:02:34;;;;;;;17.02;10.63;;;;;;;9.97;100.00;98807.97;4157013;28;20041;-74
2022/10/30 04:04:34;;;;;;;18.13;10.20;;;;;;;9.93;100.00;98807.91;4158528;28;20049;-74
2022/10/30 04:06:34;;;;;;;16.77;10.93;;;;;;;9.92;100.00;98811.81;4160240;28;20044;-74
2022/10/30 04:08:34;;;;;;;18.02;10.93;;;;;;;9.94;100.00;98815.03;4156885;28;20068;-74
2022/10/30 04:10:35;;;;;;;19.05;9.73;;;;;;;9.96;100.00;98817.44;4156071;28;20497;-74
2022/10/30 04:12:35;;;;;;;16.85;9.73;;;;;;;9.94;100.00;98822.53;4155149;28;20036;-74
2022/10/30 04:14:36;;;;;;;19.50;11.82;;;;;;;9.94;100.00;98817.81;4155657;28;20046;-74
2022/10/30 04:16:36;;;;;;;19.98;10.38;;;;;;;9.91;100.00;98817.72;4157786;28;20060;-74
2022/10/30 04:18:36;;;;;;;18.60;10.10;;;;;;;9.88;100.00;98819.25;4155509;28;20083;-74
2022/10/30 04:20:36;;;;;;;16.77;10.27;;;;;;;9.89;100.00;98817.28;4157798;28;20099;-75
2022/10/30 04:22:37;;;;;;;16.10;9.18;;;;;;;9.87;100.00;98816.84;4163449;28;20076;-74
2022/10/30 04:24:38;;;;;;;13.15;9.13;;;;;;;9.86;100.00;98821.59;4160687;28;20465;-74
2022/10/30 04:26:38;;;;;;;16.20;10.70;;;;;;;9.88;100.00;98818.44;4159414;28;20152;-75
2022/10/30 04:28:38;;;;;;;19.33;9.98;;;;;;;9.87;100.00;98827.91;4155474;28;20088;-75
2022/10/30 04:30:39;;;;;;;16.95;10.40;;;;;;;9.80;100.00;98823.03;4155318;28;20049;-74
2022/10/30 04:32:46;;;;;;;19.00;10.75;;;;;;;9.80;100.00;98815.53;4153488;28;20814;-74
2022/10/30 04:34:46;;;;;;;18.77;10.65;;;;;;;9.84;100.00;98824.69;4157276;28;20136;-74
2022/10/30 04:36:47;;;;;;;17.63;10.55;;;;;;;9.81;100.00;98827.41;4159051;28;20533;-74
2022/10/30 04:38:47;;;;;;;20.30;12.10;;;;;;;9.76;100.00;98822.97;4155595;28;20045;-74
2022/10/30 04:40:47;;;;;;;20.95;11.45;;;;;;;9.76;100.00;98831.28;4157913;28;20049;-74
2022/10/30 04:42:48;;;;;;;17.63;12.00;;;;;;;9.74;100.00;98824.47;4155040;28;20532;-74
2022/10/30 04:44:48;;;;;;;22.10;12.05;;;;;;;9.75;100.00;98823.31;4156419;28;20313;-74
2022/10/30 04:46:48;;;;;;;19.50;11.68;;;;;;;9.77;100.00;98816.28;4157060;28;20057;-74
2022/10/30 04:48:48;;;;;;;17.30;10.70;;;;;;;9.82;100.00;98807.69;4156205;28;20482;-75
2022/10/30 04:50:49;;;;;;;16.63;11.27;;;;;;;9.84;100.00;98812.84;4155076;28;20049;-74
2022/10/30 04:52:57;;;;;;;16.17;11.23;;;;;;;9.87;100.00;98814.91;4152908;28;20064;-74
2022/10/30 04:54:58;;;;;;;20.05;11.45;;;;;;;9.88;100.00;98815.69;4155192;28;20055;-74
2022/10/30 04:56:58;;;;;;;18.92;12.27;;;;;;;9.87;100.00;98814.09;4155060;28;20045;-75
2022/10/30 04:58:58;;;;;;;20.05;11.30;;;;;;;9.89;100.00;98811.75;4156411;28;20053;-74
2022/10/30 05:01:03;;;;;;;21.63;11.43;;;;;;;9.87;100.00;98803.84;4155125;28;20331;-74
2022/10/30 05:03:03;;;;;;;20.67;12.77;;;;;;;9.90;100.00;98802.31;4155730;28;20065;-74
2022/10/30 05:05:04;;;;;;;20.33;11.57;;;;;;;9.84;100.00;98799.81;4157160;28;20137;-74
2022/10/30 05:07:05;;;;;;;18.25;11.38;;;;;;;9.83;100.00;98806.50;4155830;28;20069;-74
2022/10/30 05:09:06;;;;;;;15.73;11.25;;;;;;;9.78;100.00;98812.34;4154963;28;20661;-74
2022/10/30 05:11:06;;;;;;;20.33;11.82;;;;;;;9.75;100.00;98813.06;4154395;28;20049;-74
2022/10/30 05:13:10;;;;;;;16.30;11.88;;;;;;;9.66;100.00;98812.50;4156812;28;20452;-74
2022/10/30 05:15:11;;;;;;;18.20;12.23;;;;;;;9.57;100.00;98807.19;4157190;28;20125;-74
2022/10/30 05:17:12;;;;;;;20.60;13.03;;;;;;;9.55;100.00;98808.72;4159330;28;20669;-75
2022/10/30 05:19:12;;;;;;;21.30;13.68;;;;;;;9.51;100.00;98810.59;4156060;28;20042;-74
2022/10/30 05:21:12;;;;;;;22.77;13.57;;;;;;;9.41;100.00;98803.69;4154581;28;20338;-74
2022/10/30 05:23:13;;;;;;;24.83;14.20;;;;;;;9.33;100.00;98799.16;4155823;28;20042;-74
2022/10/30 05:25:14;;;;;;;25.13;13.98;;;;;;;9.29;100.00;98803.84;4156088;28;20037;-74
2022/10/30 05:27:15;;;;;;;21.35;12.13;;;;;;;9.25;100.00;98797.41;4156897;28;20061;-74
2022/10/30 05:29:15;;;;;;;21.13;12.32;;;;;;;9.21;100.00;98793.78;4155832;28;20049;-74
2022/10/30 05:31:15;;;;;;;23.20;12.93;;;;;;;9.16;100.00;98800.38;4154987;28;20033;-74
2022/10/30 05:33:16;;;;;;;20.33;13.00;;;;;;;9.13;100.00;98797.56;4157701;28;20148;-74
2022/10/30 05:35:17;;;;;;;27.00;13.20;;;;;;;9.12;100.00;98787.69;4155789;28;20540;-74
2022/10/30 05:37:17;;;;;;;21.20;12.93;;;;;;;9.14;100.00;98799.94;4157753;28;20045;-74
2022/10/30 05:39:17;;;;;;;34.08;14.13;;;;;;;9.14;100.00;98794.44;4158246;28;20497;-74
2022/10/30 05:41:18;;;;;;;26.60;12.77;;;;;;;9.14;100.00;98788.91;4156727;28;20148;-74
2022/10/30 05:43:18;;;;;;;24.38;12.45;;;;;;;9.12;100.00;98799.53;4159017;28;20164;-74
2022/10/30 05:45:19;;;;;;;18.45;11.68;;;;;;;9.10;100.00;98795.50;4158670;28;20065;-74
2022/10/30 05:47:19;;;;;;;29.25;14.13;;;;;;;9.08;100.00;98809.66;4161251;28;20073;-74
2022/10/30 05:49:19;;;;;;;23.38;14.38;;;;;;;9.03;100.00;98798.13;4157239;28;20348;-74
2022/10/30 05:51:20;;;;;;;24.17;12.77;;;;;;;9.06;100.00;98806.47;4158966;28;20048;-74
2022/10/30 05:53:20;;;;;;;24.42;12.05;;;;;;;9.06;100.00;98800.94;4160342;28;20532;-74
2022/10/30 05:55:20;;;;;;;18.38;11.38;;;;;;;9.03;100.00;98807.22;4159779;28;20049;-74
2022/10/30 05:57:21;;;;;;;17.48;12.10;;;;;;;9.00;100.00;98802.38;4160362;28;20489;-74
2022/10/30 05:59:21;;;;;;;16.80;11.57;;;;;;;8.95;100.00;98805.44;4157865;28;20044;-75
2022/10/30 06:01:21;;;;;;;22.50;11.38;;;;;;;8.96;100.00;98804.28;4156379;28;20049;-74
2022/10/30 06:03:22;;;;;;;18.77;12.50;;;;;;;8.95;100.00;98802.69;4157770;28;20050;-74
2022/10/30 06:05:22;;;;;;;21.23;12.55;;;;;;;8.95;100.00;98802.69;4156986;28;20132;-74
2022/10/30 06:07:22;;;;;;;24.10;12.93;;;;;;;8.91;100.00;98812.81;4159737;28;20048;-74
2022/10/30 06:09:22;;;;;;;20.13;13.55;;;;;;;8.88;100.00;98808.84;4157471;28;20045;-75
2022/10/30 06:11:23;;;;;;;22.67;14.35;;;;;;;8.86;100.00;98810.34;4157553;28;20053;-74
2022/10/30 06:13:23;;;;;;;21.50;13.38;;;;;;;8.84;100.00;98798.84;4160377;28;20051;-74
2022/10/30 06:15:24;;;;;;;19.70;12.73;;;;;;;8.82;100.00;98799.22;4159116;28;20049;-74
2022/10/30 06:17:24;;;;;;;22.27;12.63;;;;;;;8.83;100.00;98805.53;4159195;28;20049;-74
2022/10/30 06:19:24;;;;;;;21.38;12.85;;;;;;;8.85;100.00;98804.00;4157249;28;20042;-74
2022/10/30 06:21:24;;;;;;;18.15;12.30;;;;;;;8.86;100.00;98807.59;4158976;28;20061;-74
2022/10/30 06:23:25;;;;;;;20.85;12.57;;;;;;;8.83;100.00;98798.06;4157581;28;20773;-74
2022/10/30 06:25:26;;;;;;;17.45;11.50;;;;;;;8.82;100.00;98807.50;4156547;28;20041;-74
2022/10/30 06:27:26;;;;;;;21.27;13.25;;;;;;;8.78;100.00;98812.16;4154431;28;20041;-74
2022/10/30 06:29:27;;;;;;;16.55;12.57;;;;;;;8.73;100.00;98817.91;4158881;28;20449;-74
2022/10/30 06:31:27;;;;;;;20.40;13.10;;;;;;;8.70;100.00;98813.94;4102663;28;20483;-74
2022/10/30 06:33:27;;;;;;;21.90;12.60;;;;;;;8.68;100.00;98815.41;4164703;28;20431;-74
2022/10/30 06:35:28;;;;;;;16.90;12.82;;;;;;;8.63;100.00;98826.75;4155718;28;20049;-74
2022/10/30 06:37:29;;;;;;;24.58;12.15;;;;;;;8.64;100.00;98834.66;4157284;28;20686;-74
2022/10/30 06:39:29;;;;;;;21.88;12.70;;;;;;;8.66;100.00;98823.25;4156868;28;20805;-74
2022/10/30 06:41:29;;;;;;;21.17;11.93;;;;;;;8.66;100.00;98826.03;4156977;28;20144;-74
2022/10/30 06:43:30;;;;;;;22.30;13.07;;;;;;;8.65;100.00;98827.19;4154923;28;20048;-74
2022/10/30 06:45:30;;;;;;;19.15;11.50;;;;;;;8.63;100.00;98818.47;4155937;28;20046;-74
2022/10/30 06:47:34;;;;;;;17.48;10.75;;;;;;;8.57;100.00;98814.38;4157785;28;20046;-74
2022/10/30 06:49:34;;;;;;;20.17;11.93;;;;;;;8.60;100.00;98827.44;4156199;28;20073;-74
2022/10/30 06:51:34;;;;;;;19.77;11.85;;;;;;;8.58;100.00;98822.28;4156497;28;20141;-74
2022/10/30 06:53:34;;;;;;;17.50;11.65;;;;;;;8.57;100.00;98823.44;4159047;28;20386;-74
2022/10/30 06:55:35;;;;;;;20.20;11.52;;;;;;;8.59;100.00;98834.13;4158930;28;20478;-74
2022/10/30 06:57:35;;;;;;;23.90;12.48;;;;;;;8.54;100.00;98828.88;4156065;28;20067;-74
2022/10/30 06:59:35;;;;;;;21.95;14.00;;;;;;;8.56;100.00;98832.09;4155928;28;20046;-74
2022/10/30 07:01:36;;;;;;;22.23;12.10;;;;;;;8.56;100.00;98840.34;4157343;28;20221;-74
2022/10/30 07:03:36;;;;;;;22.52;11.45;;;;;;;8.56;100.00;98841.16;4158665;28;20540;-74
2022/10/30 07:05:36;;;;;;;19.90;12.50;;;;;;;8.57;100.00;98852.97;4157795;28;20037;-74
2022/10/30 07:07:36;;;;;;;16.20;11.35;;;;;;;8.59;100.00;98850.66;4157247;28;20041;-74
2022/10/30 07:09:37;;;;;;;21.02;11.20;;;;;;;8.56;100.00;98852.19;4157387;28;20053;-74
2022/10/30 07:11:39;;;;;;;21.65;11.40;;;;;;;8.58;100.00;98849.06;4158491;28;20054;-74
2022/10/30 07:13:39;;;;;;;14.80;11.23;;;;;;;8.61;100.00;98856.66;4155903;28;20089;-74
2022/10/30 07:15:39;;;;;;;18.02;12.05;;;;;;;8.62;100.00;98861.00;4156035;28;20053;-74
2022/10/30 07:17:39;;;;;;;20.00;11.35;;;;;;;8.62;100.00;98855.50;4156170;28;20128;-74
2022/10/30 07:19:40;;;;;;;23.63;11.85;;;;;;;8.65;100.00;98863.03;4157256;28;20116;-74
2022/10/30 07:21:40;;;;;;;19.55;11.48;;;;;;;8.67;100.00;98861.53;4156293;28;20045;-74
2022/10/30 07:23:40;;;;;;;15.55;11.38;;;;;;;8.71;100.00;98859.66;4156194;28;20431;-74
2022/10/30 07:25:41;;;;;;;20.83;12.68;;;;;;;8.72;100.00;98854.94;4155494;28;20045;-74
2022/10/30 07:27:43;;;;;;;19.15;11.93;;;;;;;8.78;100.00;98859.03;4155047;28;20501;-74
2022/10/30 07:29:43;;;;;;;22.58;12.98;;;;;;;8.82;100.00;98856.34;4155720;28;20110;-74
2022/10/30 07:31:48;;;;;;;18.88;11.15;;;;;;;8.84;100.00;98856.78;4159817;28;20041;-73
2022/10/30 07:33:48;;;;;;;17.10;11.93;;;;;;;8.90;100.00;98860.91;4157378;28;20057;-74
2022/10/30 07:35:49;;;;;;;21.20;11.82;;;;;;;8.91;100.00;98854.22;4153641;28;20049;-74
2022/10/30 07:37:49;;;;;;;17.10;11.23;;;;;;;8.96;100.00;98871.31;4157945;28;20077;-74
2022/10/30 07:39:49;;;;;;;18.17;10.77;;;;;;;8.99;100.00;98865.06;4161303;28;20061;-74
2022/10/30 07:41:49;;;;;;;21.90;11.63;;;;;;;9.04;100.00;98866.75;4153794;28;20033;-74
2022/10/30 07:43:50;;;;;;;18.83;11.00;;;;;;;9.08;100.00;98858.56;4159258;28;20053;-74
2022/10/30 07:45:50;;;;;;;18.58;10.50;;;;;;;9.11;100.00;98869.69;4098746;28;20091;-74
2022/10/30 07:47:50;;;;;;;18.25;11.95;;;;;;;9.13;100.00;98866.56;4160097;28;20056;-74
2022/10/30 07:49:51;;;;;;;17.45;10.77;;;;;;;9.17;100.00;98867.44;4154947;28;20099;-74
2022/10/30 07:51:51;;;;;;;20.15;11.60;;;;;;;9.22;100.00;98867.16;4154954;28;20588;-74
2022/10/30 07:53:51;;;;;;;19.02;11.57;;;;;;;9.28;100.00;98871.25;4154855;28;20045;-74
2022/10/30 07:55:51;;;;;;;19.40;11.43;;;;;;;9.34;100.00;98867.03;4155372;28;20489;-74
2022/10/30 07:57:52;;;;;;;19.35;11.52;;;;;;;9.36;100.00;98864.75;4157850;28;20037;-74
2022/10/30 07:59:52;;;;;;;21.77;12.27;;;;;;;9.50;100.00;98876.09;4154962;28;20414;-74
2022/10/30 08:01:52;;;;;;;19.05;11.55;;;;;;;9.52;100.00;98868.25;4160478;28;20148;-74
2022/10/30 08:03:52;;;;;;;18.08;12.05;;;;;;;9.59;100.00;98867.59;4154147;28;20041;-75
2022/10/30 08:05:53;;;;;;;17.30;11.00;;;;;;;9.61;100.00;98878.31;4161346;28;20495;-74
2022/10/30 08:07:53;;;;;;;17.25;10.80;;;;;;;9.64;100.00;98870.06;4157070;28;20048;-73
2022/10/30 08:09:53;;;;;;;14.98;11.65;;;;;;;9.70;100.00;98865.06;4158573;28;20099;-74
2022/10/30 08:11:54;;;;;;;18.00;10.90;;;;;;;9.74;100.00;98872.25;4157058;28;20107;-74
2022/10/30 08:13:54;;;;;;;15.82;11.65;;;;;;;9.75;100.00;98875.81;4154515;28;20053;-74
2022/10/30 08:15:54;;;;;;;21.52;11.60;;;;;;;9.82;100.00;98878.72;4155008;28;20379;-74
2022/10/30 08:17:54;;;;;;;18.23;11.85;;;;;;;9.92;100.00;98883.69;4154959;28;20045;-74
2022/10/30 08:19:55;;;;;;;17.42;11.50;;;;;;;10.03;100.00;98881.16;4158186;28;20041;-74
2022/10/30 08:21:56;;;;;;;19.52;11.95;;;;;;;10.15;100.00;98883.75;4157286;28;20271;-74
2022/10/30 08:23:56;;;;;;;21.48;12.00;;;;;;;10.27;100.00;98882.84;4154673;28;20049;-74
2022/10/30 08:25:59;;;;;;;16.75;11.88;;;;;;;10.40;100.00;98892.56;4156249;28;20064;-74
2022/10/30 08:28:00;;;;;;;;;;;;;;;10.52;100.00;98875.00;4159055;28;20326;-74
2022/10/30 08:30:01;;;;;;;23.95;11.10;;;;;;;10.63;100.00;98882.31;4160791;28;19975;-74
2022/10/30 08:32:01;;;;;;;18.40;10.93;;;;;;;10.80;100.00;98886.56;4154498;28;20661;-74
2022/10/30 08:34:01;;;;;;;26.52;11.05;;;;;;;10.89;100.00;98878.78;4157013;28;20716;-74
2022/10/30 08:36:02;;;;;;;38.67;10.93;;;;;;;10.92;100.00;98880.00;4158723;28;20422;-74
2022/10/30 08:38:02;;;;;;;19.50;11.10;;;;;;;11.06;100.00;98890.53;4157643;28;20116;-74
2022/10/30 08:40:03;;;;;;;21.05;12.50;;;;;;;11.09;100.00;98889.78;4158361;28;20113;-74
2022/10/30 08:42:03;;;;;;;19.90;10.35;;;;;;;11.18;100.00;98893.13;4153920;28;20037;-74
2022/10/30 08:44:04;;;;;;;27.20;10.90;;;;;;;11.26;100.00;98894.81;4155491;28;20110;-74
2022/10/30 08:46:04;;;;;;;18.30;10.98;;;;;;;11.30;100.00;98895.66;4154761;28;20065;-74
2022/10/30 08:48:05;;;;;;;27.10;11.75;;;;;;;11.37;100.00;98894.97;4154903;28;20095;-74
2022/10/30 08:50:06;;;;;;;17.52;11.10;;;;;;;11.41;100.00;98893.84;4159101;28;20056;-74
2022/10/30 08:52:07;;;;;;;17.20;10.65;;;;;;;11.44;100.00;98889.53;4160342;28;20361;-74
2022/10/30 08:54:08;;;;;;;19.80;10.80;;;;;;;11.48;100.00;98893.16;4154514;28;20040;-74
2022/10/30 08:56:08;;;;;;;25.80;11.35;;;;;;;11.50;100.00;98888.84;4159411;28;20119;-74
2022/10/30 08:58:09;;;;;;;19.00;11.15;;;;;;;11.58;100.00;98895.25;4157260;28;20289;-74
2022/10/30 09:00:09;;;;;;;20.02;11.40;;;;;;;11.65;100.00;98887.06;4155576;28;20199;-74
2022/10/30 09:02:09;;;;;;;22.13;11.77;;;;;;;11.75;100.00;98896.69;4157725;28;20037;-74
2022/10/30 09:04:10;;;;;;;24.65;12.88;;;;;;;11.86;100.00;98888.56;4154683;28;20036;-74
2022/10/30 09:06:11;;;;;;;16.63;11.52;;;;;;;11.92;100.00;98884.28;4160151;28;20462;-74
2022/10/30 09:08:11;;;;;;;18.38;11.70;;;;;;;11.96;100.00;98883.13;4156599;28;20038;-74
2022/10/30 09:10:12;;;;;;;18.27;10.88;;;;;;;12.00;100.00;98894.28;4155028;28;20289;-74
2022/10/30 09:12:12;;;;;;;19.98;10.52;;;;;;;12.06;100.00;98899.09;4160303;28;20083;-75
2022/10/30 09:14:13;;;;;;;16.38;10.48;;;;;;;12.09;100.00;98890.03;4157253;28;20030;-74
2022/10/30 09:16:13;;;;;;;13.50;10.57;;;;;;;12.16;100.00;98894.06;4157129;28;20116;-74
2022/10/30 09:18:13;;;;;;;19.65;10.35;;;;;;;12.28;100.00;98896.59;4159257;28;20075;-74
2022/10/30 09:20:14;;;;;;;20.92;11.35;;;;;;;12.36;100.00;98890.75;4158547;28;20409;-74
2022/10/30 09:22:14;;;;;;;17.65;10.93;;;;;;;12.47;100.00;98892.81;4156666;28;20116;-74